Terminal Aerodrome Forecast
Issued by NWS Milwaukee/Sullivan, WI

Home | Current Version | Previous Version | Text Only | Print | Product List | Glossary On
Versions: 1 2 3 4 5 6 7 8 9 10 11 12 13 14 15 16 17 18 19 20 21 22 23 24
000
FTUS43 KMKX 290228 AAA
TAFMKE
TAF AMD
KMKE 290228Z 2902/3006 16010G20KT 4SM -TSRA SCT025 BKN040CB
     FM290400 20010KT P6SM -SHRA VCTS SCT030 OVC060CB WS020/22050KT
     FM290600 23011KT P6SM VCSH SCT030 BKN100 WS020/24035KT
     FM291600 24013G23KT P6SM SCT060
     FM300300 26005KT P6SM BKN120=

USA.gov is the U.S. government's official web portal to all federal, state and local government web resources and services.